sensor_id;sensor_type;location;lat;lon;timestamp;P1;durP1;ratioP1;P2;durP2;ratioP2
4422;SDS011;2224;49.814;8.650;2023-03-11T00:00:11;3.53;;;2.90;;
4422;SDS011;2224;49.814;8.650;2023-03-11T00:02:38;3.00;;;2.80;;
4422;SDS011;2224;49.814;8.650;2023-03-11T00:05:05;2.83;;;2.63;;
4422;SDS011;2224;49.814;8.650;2023-03-11T00:07:31;2.10;;;2.00;;
4422;SDS011;2224;49.814;8.650;2023-03-11T00:09:56;2.50;;;2.37;;
4422;SDS011;2224;49.814;8.650;2023-03-11T00:12:21;2.60;;;2.40;;
4422;SDS011;2224;49.814;8.650;2023-03-11T00:14:47;2.70;;;2.40;;
4422;SDS011;2224;49.814;8.650;2023-03-11T00:17:12;2.80;;;2.60;;
4422;SDS011;2224;49.814;8.650;2023-03-11T00:19:37;2.40;;;2.23;;
4422;SDS011;2224;49.814;8.650;2023-03-11T00:22:03;2.20;;;1.97;;
4422;SDS011;2224;49.814;8.650;2023-03-11T00:24:28;2.27;;;2.07;;
4422;SDS011;2224;49.814;8.650;2023-03-11T00:26:53;2.13;;;2.03;;
4422;SDS011;2224;49.814;8.650;2023-03-11T00:29:18;4.13;;;2.70;;
4422;SDS011;2224;49.814;8.650;2023-03-11T00:31:44;2.13;;;2.03;;
4422;SDS011;2224;49.814;8.650;2023-03-11T00:34:09;1.90;;;1.80;;
4422;SDS011;2224;49.814;8.650;2023-03-11T00:36:34;2.77;;;2.57;;
4422;SDS011;2224;49.814;8.650;2023-03-11T00:39:00;2.90;;;1.77;;
4422;SDS011;2224;49.814;8.650;2023-03-11T00:41:30;2.10;;;1.60;;
4422;SDS011;2224;49.814;8.650;2023-03-11T00:43:57;1.63;;;1.53;;
4422;SDS011;2224;49.814;8.650;2023-03-11T00:46:22;1.77;;;1.67;;
4422;SDS011;2224;49.814;8.650;2023-03-11T00:48:49;1.77;;;1.53;;
4422;SDS011;2224;49.814;8.650;2023-03-11T00:51:14;2.10;;;1.80;;
4422;SDS011;2224;49.814;8.650;2023-03-11T00:53:40;2.40;;;1.97;;
4422;SDS011;2224;49.814;8.650;2023-03-11T00:56:06;1.90;;;1.80;;
4422;SDS011;2224;49.814;8.650;2023-03-11T00:58:33;2.00;;;1.90;;
4422;SDS011;2224;49.814;8.650;2023-03-11T01:00:59;2.60;;;1.67;;
4422;SDS011;2224;49.814;8.650;2023-03-11T01:03:25;1.50;;;1.40;;
4422;SDS011;2224;49.814;8.650;2023-03-11T01:05:50;2.07;;;1.63;;
4422;SDS011;2224;49.814;8.650;2023-03-11T01:08:16;3.57;;;1.43;;
4422;SDS011;2224;49.814;8.650;2023-03-11T01:10:41;1.50;;;1.30;;
4422;SDS011;2224;49.814;8.650;2023-03-11T01:13:06;1.47;;;1.30;;
4422;SDS011;2224;49.814;8.650;2023-03-11T01:15:33;3.53;;;1.90;;
4422;SDS011;2224;49.814;8.650;2023-03-11T01:17:59;1.80;;;1.63;;
4422;SDS011;2224;49.814;8.650;2023-03-11T01:20:25;2.37;;;1.60;;
4422;SDS011;2224;49.814;8.650;2023-03-11T01:22:50;1.60;;;1.50;;
4422;SDS011;2224;49.814;8.650;2023-03-11T01:25:16;1.70;;;1.60;;
4422;SDS011;2224;49.814;8.650;2023-03-11T01:27:43;1.50;;;1.40;;
4422;SDS011;2224;49.814;8.650;2023-03-11T01:30:09;2.00;;;1.70;;
4422;SDS011;2224;49.814;8.650;2023-03-11T01:32:38;3.30;;;1.90;;
4422;SDS011;2224;49.814;8.650;2023-03-11T01:35:03;3.13;;;1.30;;
4422;SDS011;2224;49.814;8.650;2023-03-11T01:37:29;2.33;;;2.03;;
4422;SDS011;2224;49.814;8.650;2023-03-11T01:39:54;1.50;;;1.40;;
4422;SDS011;2224;49.814;8.650;2023-03-11T01:42:19;1.70;;;1.60;;
4422;SDS011;2224;49.814;8.650;2023-03-11T01:44:45;3.30;;;1.50;;
4422;SDS011;2224;49.814;8.650;2023-03-11T01:49:35;1.83;;;1.73;;
4422;SDS011;2224;49.814;8.650;2023-03-11T01:52:06;3.27;;;1.70;;
4422;SDS011;2224;49.814;8.650;2023-03-11T01:54:33;6.80;;;2.30;;
4422;SDS011;2224;49.814;8.650;2023-03-11T01:57:00;1.87;;;1.67;;
4422;SDS011;2224;49.814;8.650;2023-03-11T01:59:35;2.20;;;1.70;;
4422;SDS011;2224;49.814;8.650;2023-03-11T02:02:10;2.70;;;2.20;;
4422;SDS011;2224;49.814;8.650;2023-03-11T02:04:39;2.10;;;1.43;;
4422;SDS011;2224;49.814;8.650;2023-03-11T02:07:04;1.83;;;1.60;;
4422;SDS011;2224;49.814;8.650;2023-03-11T02:09:31;5.93;;;1.70;;
4422;SDS011;2224;49.814;8.650;2023-03-11T02:11:56;2.17;;;2.00;;
4422;SDS011;2224;49.814;8.650;2023-03-11T02:14:22;3.70;;;1.73;;
4422;SDS011;2224;49.814;8.650;2023-03-11T02:16:48;2.20;;;1.60;;
4422;SDS011;2224;49.814;8.650;2023-03-11T02:19:17;4.03;;;2.13;;
4422;SDS011;2224;49.814;8.650;2023-03-11T02:21:59;2.63;;;1.20;;
4422;SDS011;2224;49.814;8.650;2023-03-11T02:24:37;3.63;;;1.90;;
4422;SDS011;2224;49.814;8.650;2023-03-11T02:27:15;2.20;;;2.00;;
4422;SDS011;2224;49.814;8.650;2023-03-11T02:29:43;3.20;;;1.53;;
4422;SDS011;2224;49.814;8.650;2023-03-11T02:32:09;5.60;;;2.13;;
4422;SDS011;2224;49.814;8.650;2023-03-11T02:34:35;3.27;;;2.97;;
4422;SDS011;2224;49.814;8.650;2023-03-11T02:37:08;3.30;;;1.93;;
4422;SDS011;2224;49.814;8.650;2023-03-11T02:39:40;2.10;;;1.90;;
4422;SDS011;2224;49.814;8.650;2023-03-11T02:42:11;2.23;;;1.60;;
4422;SDS011;2224;49.814;8.650;2023-03-11T02:44:43;3.07;;;2.53;;
4422;SDS011;2224;49.814;8.650;2023-03-11T02:47:11;4.73;;;2.23;;
4422;SDS011;2224;49.814;8.650;2023-03-11T02:49:36;2.50;;;2.03;;
4422;SDS011;2224;49.814;8.650;2023-03-11T02:52:02;2.97;;;1.80;;
4422;SDS011;2224;49.814;8.650;2023-03-11T02:54:28;2.60;;;2.10;;
4422;SDS011;2224;49.814;8.650;2023-03-11T02:56:53;3.57;;;2.50;;
4422;SDS011;2224;49.814;8.650;2023-03-11T02:59:18;4.10;;;2.07;;
4422;SDS011;2224;49.814;8.650;2023-03-11T03:01:44;3.67;;;2.10;;
4422;SDS011;2224;49.814;8.650;2023-03-11T03:04:10;2.80;;;1.87;;
4422;SDS011;2224;49.814;8.650;2023-03-11T03:06:35;3.93;;;2.37;;
4422;SDS011;2224;49.814;8.650;2023-03-11T03:09:01;4.40;;;1.67;;
4422;SDS011;2224;49.814;8.650;2023-03-11T03:11:26;5.67;;;2.03;;
4422;SDS011;2224;49.814;8.650;2023-03-11T03:13:52;4.30;;;2.37;;
4422;SDS011;2224;49.814;8.650;2023-03-11T03:16:17;5.80;;;1.97;;
4422;SDS011;2224;49.814;8.650;2023-03-11T03:18:42;4.23;;;1.90;;
4422;SDS011;2224;49.814;8.650;2023-03-11T03:21:08;7.13;;;2.60;;
4422;SDS011;2224;49.814;8.650;2023-03-11T03:23:33;2.43;;;2.23;;
4422;SDS011;2224;49.814;8.650;2023-03-11T03:26:01;5.03;;;2.13;;
4422;SDS011;2224;49.814;8.650;2023-03-11T03:28:27;1.93;;;1.83;;
4422;SDS011;2224;49.814;8.650;2023-03-11T03:30:52;2.10;;;1.90;;
4422;SDS011;2224;49.814;8.650;2023-03-11T03:33:17;3.20;;;2.33;;
4422;SDS011;2224;49.814;8.650;2023-03-11T03:35:43;6.23;;;2.20;;
4422;SDS011;2224;49.814;8.650;2023-03-11T03:38:09;4.53;;;2.47;;
4422;SDS011;2224;49.814;8.650;2023-03-11T03:40:35;3.80;;;2.30;;
4422;SDS011;2224;49.814;8.650;2023-03-11T03:43:00;4.27;;;2.07;;
4422;SDS011;2224;49.814;8.650;2023-03-11T03:45:26;4.20;;;2.27;;
4422;SDS011;2224;49.814;8.650;2023-03-11T03:47:51;3.00;;;1.93;;
4422;SDS011;2224;49.814;8.650;2023-03-11T03:50:16;2.23;;;2.00;;
4422;SDS011;2224;49.814;8.650;2023-03-11T03:52:42;3.13;;;2.90;;
4422;SDS011;2224;49.814;8.650;2023-03-11T03:55:07;2.90;;;1.90;;
4422;SDS011;2224;49.814;8.650;2023-03-11T03:57:33;6.90;;;2.87;;
4422;SDS011;2224;49.814;8.650;2023-03-11T03:59:58;4.03;;;2.50;;
4422;SDS011;2224;49.814;8.650;2023-03-11T04:02:23;3.53;;;1.93;;
4422;SDS011;2224;49.814;8.650;2023-03-11T04:04:49;2.77;;;2.40;;
4422;SDS011;2224;49.814;8.650;2023-03-11T04:07:14;3.43;;;2.20;;
4422;SDS011;2224;49.814;8.650;2023-03-11T04:09:40;4.03;;;2.03;;
4422;SDS011;2224;49.814;8.650;2023-03-11T04:12:06;6.77;;;1.90;;
4422;SDS011;2224;49.814;8.650;2023-03-11T04:14:32;2.13;;;2.03;;
4422;SDS011;2224;49.814;8.650;2023-03-11T04:16:57;4.10;;;2.10;;
4422;SDS011;2224;49.814;8.650;2023-03-11T04:19:23;2.30;;;2.10;;
4422;SDS011;2224;49.814;8.650;2023-03-11T04:21:49;6.87;;;3.20;;
4422;SDS011;2224;49.814;8.650;2023-03-11T04:24:15;5.53;;;2.60;;
4422;SDS011;2224;49.814;8.650;2023-03-11T04:26:41;9.93;;;2.57;;
4422;SDS011;2224;49.814;8.650;2023-03-11T04:29:07;3.20;;;2.63;;
4422;SDS011;2224;49.814;8.650;2023-03-11T04:31:32;3.53;;;2.33;;
4422;SDS011;2224;49.814;8.650;2023-03-11T04:33:57;3.17;;;2.87;;
4422;SDS011;2224;49.814;8.650;2023-03-11T04:36:23;5.60;;;2.47;;
4422;SDS011;2224;49.814;8.650;2023-03-11T04:38:48;4.83;;;2.70;;
4422;SDS011;2224;49.814;8.650;2023-03-11T04:41:13;6.40;;;2.43;;
4422;SDS011;2224;49.814;8.650;2023-03-11T04:43:39;4.07;;;2.40;;
4422;SDS011;2224;49.814;8.650;2023-03-11T04:46:04;8.90;;;3.00;;
4422;SDS011;2224;49.814;8.650;2023-03-11T04:48:29;8.97;;;3.00;;
4422;SDS011;2224;49.814;8.650;2023-03-11T04:50:54;2.70;;;2.10;;
4422;SDS011;2224;49.814;8.650;2023-03-11T04:53:20;6.93;;;2.77;;
4422;SDS011;2224;49.814;8.650;2023-03-11T04:55:45;8.33;;;3.20;;
4422;SDS011;2224;49.814;8.650;2023-03-11T04:58:11;4.53;;;2.60;;
4422;SDS011;2224;49.814;8.650;2023-03-11T05:00:37;6.80;;;2.43;;
4422;SDS011;2224;49.814;8.650;2023-03-11T05:03:02;5.03;;;2.73;;
4422;SDS011;2224;49.814;8.650;2023-03-11T05:05:28;4.70;;;2.23;;
4422;SDS011;2224;49.814;8.650;2023-03-11T05:07:53;3.40;;;2.77;;
4422;SDS011;2224;49.814;8.650;2023-03-11T05:10:18;3.50;;;2.40;;
4422;SDS011;2224;49.814;8.650;2023-03-11T05:12:46;5.93;;;2.60;;
4422;SDS011;2224;49.814;8.650;2023-03-11T05:15:12;3.60;;;2.50;;
4422;SDS011;2224;49.814;8.650;2023-03-11T05:17:37;3.67;;;2.60;;
4422;SDS011;2224;49.814;8.650;2023-03-11T05:20:05;5.37;;;2.80;;
4422;SDS011;2224;49.814;8.650;2023-03-11T05:22:32;7.63;;;2.80;;
4422;SDS011;2224;49.814;8.650;2023-03-11T05:24:57;6.50;;;2.97;;
4422;SDS011;2224;49.814;8.650;2023-03-11T05:27:23;5.30;;;2.60;;
4422;SDS011;2224;49.814;8.650;2023-03-11T05:29:48;3.77;;;2.63;;
4422;SDS011;2224;49.814;8.650;2023-03-11T05:32:13;8.40;;;3.07;;
4422;SDS011;2224;49.814;8.650;2023-03-11T05:34:39;2.80;;;2.60;;
4422;SDS011;2224;49.814;8.650;2023-03-11T05:37:04;2.50;;;2.20;;
4422;SDS011;2224;49.814;8.650;2023-03-11T05:39:30;3.67;;;3.00;;
4422;SDS011;2224;49.814;8.650;2023-03-11T05:41:55;6.10;;;3.10;;
4422;SDS011;2224;49.814;8.650;2023-03-11T05:44:21;4.03;;;2.70;;
4422;SDS011;2224;49.814;8.650;2023-03-11T05:46:46;5.87;;;2.90;;
4422;SDS011;2224;49.814;8.650;2023-03-11T05:49:12;3.50;;;2.43;;
4422;SDS011;2224;49.814;8.650;2023-03-11T05:51:37;10.03;;;3.10;;
4422;SDS011;2224;49.814;8.650;2023-03-11T05:54:02;4.57;;;3.53;;
4422;SDS011;2224;49.814;8.650;2023-03-11T05:56:28;7.80;;;3.80;;
4422;SDS011;2224;49.814;8.650;2023-03-11T05:58:55;4.60;;;3.70;;
4422;SDS011;2224;49.814;8.650;2023-03-11T06:01:21;4.38;;;3.00;;
4422;SDS011;2224;49.814;8.650;2023-03-11T06:03:46;6.43;;;3.37;;
4422;SDS011;2224;49.814;8.650;2023-03-11T06:06:12;5.70;;;3.10;;
4422;SDS011;2224;49.814;8.650;2023-03-11T06:08:38;3.47;;;3.20;;
4422;SDS011;2224;49.814;8.650;2023-03-11T06:11:05;5.93;;;3.30;;
4422;SDS011;2224;49.814;8.650;2023-03-11T06:13:32;11.52;;;3.72;;
4422;SDS011;2224;49.814;8.650;2023-03-11T06:15:58;4.27;;;3.57;;
4422;SDS011;2224;49.814;8.650;2023-03-11T06:18:23;8.20;;;3.60;;
4422;SDS011;2224;49.814;8.650;2023-03-11T06:20:50;6.25;;;3.42;;
4422;SDS011;2224;49.814;8.650;2023-03-11T06:23:21;6.40;;;3.40;;
4422;SDS011;2224;49.814;8.650;2023-03-11T06:25:56;3.53;;;3.30;;
4422;SDS011;2224;49.814;8.650;2023-03-11T06:28:26;3.83;;;3.53;;
4422;SDS011;2224;49.814;8.650;2023-03-11T06:30:52;5.50;;;3.57;;
4422;SDS011;2224;49.814;8.650;2023-03-11T06:33:20;6.20;;;3.67;;
4422;SDS011;2224;49.814;8.650;2023-03-11T06:35:54;4.23;;;3.23;;
4422;SDS011;2224;49.814;8.650;2023-03-11T06:38:23;6.07;;;3.80;;
4422;SDS011;2224;49.814;8.650;2023-03-11T06:40:48;5.53;;;4.40;;
4422;SDS011;2224;49.814;8.650;2023-03-11T06:43:14;3.50;;;3.00;;
4422;SDS011;2224;49.814;8.650;2023-03-11T06:45:39;5.77;;;3.07;;
4422;SDS011;2224;49.814;8.650;2023-03-11T06:48:04;7.13;;;3.30;;
4422;SDS011;2224;49.814;8.650;2023-03-11T06:50:30;9.40;;;3.77;;
4422;SDS011;2224;49.814;8.650;2023-03-11T06:52:55;5.80;;;3.50;;
4422;SDS011;2224;49.814;8.650;2023-03-11T06:55:21;5.37;;;3.27;;
4422;SDS011;2224;49.814;8.650;2023-03-11T06:57:46;12.10;;;3.80;;
4422;SDS011;2224;49.814;8.650;2023-03-11T07:00:12;16.33;;;4.90;;
4422;SDS011;2224;49.814;8.650;2023-03-11T07:02:38;12.20;;;3.10;;
4422;SDS011;2224;49.814;8.650;2023-03-11T07:05:03;7.23;;;3.23;;
4422;SDS011;2224;49.814;8.650;2023-03-11T07:07:29;3.45;;;3.08;;
4422;SDS011;2224;49.814;8.650;2023-03-11T07:09:55;9.00;;;4.20;;
4422;SDS011;2224;49.814;8.650;2023-03-11T07:12:21;3.85;;;3.22;;
4422;SDS011;2224;49.814;8.650;2023-03-11T07:14:49;4.85;;;2.80;;
4422;SDS011;2224;49.814;8.650;2023-03-11T07:17:18;2.85;;;2.25;;
4422;SDS011;2224;49.814;8.650;2023-03-11T07:19:43;9.27;;;3.10;;
4422;SDS011;2224;49.814;8.650;2023-03-11T07:22:09;6.37;;;3.23;;
4422;SDS011;2224;49.814;8.650;2023-03-11T07:24:34;5.67;;;2.83;;
4422;SDS011;2224;49.814;8.650;2023-03-11T07:26:59;4.50;;;3.20;;
4422;SDS011;2224;49.814;8.650;2023-03-11T07:29:25;4.57;;;2.60;;
4422;SDS011;2224;49.814;8.650;2023-03-11T07:31:50;9.03;;;3.03;;
4422;SDS011;2224;49.814;8.650;2023-03-11T07:34:15;7.67;;;3.23;;
4422;SDS011;2224;49.814;8.650;2023-03-11T07:36:41;5.80;;;3.20;;
4422;SDS011;2224;49.814;8.650;2023-03-11T07:39:07;3.13;;;2.70;;
4422;SDS011;2224;49.814;8.650;2023-03-11T07:41:33;6.73;;;2.93;;
4422;SDS011;2224;49.814;8.650;2023-03-11T07:43:59;15.10;;;3.43;;
4422;SDS011;2224;49.814;8.650;2023-03-11T07:46:26;5.73;;;3.03;;
4422;SDS011;2224;49.814;8.650;2023-03-11T07:48:52;6.23;;;3.40;;
4422;SDS011;2224;49.814;8.650;2023-03-11T07:51:19;4.93;;;2.90;;
4422;SDS011;2224;49.814;8.650;2023-03-11T07:53:46;4.90;;;3.60;;
4422;SDS011;2224;49.814;8.650;2023-03-11T07:56:12;3.67;;;2.53;;
4422;SDS011;2224;49.814;8.650;2023-03-11T07:58:39;10.60;;;3.23;;
4422;SDS011;2224;49.814;8.650;2023-03-11T08:01:05;3.50;;;2.90;;
4422;SDS011;2224;49.814;8.650;2023-03-11T08:03:33;6.83;;;3.20;;
4422;SDS011;2224;49.814;8.650;2023-03-11T08:05:58;5.43;;;3.00;;
4422;SDS011;2224;49.814;8.650;2023-03-11T08:08:24;6.77;;;3.13;;
4422;SDS011;2224;49.814;8.650;2023-03-11T08:10:49;5.30;;;3.57;;
4422;SDS011;2224;49.814;8.650;2023-03-11T08:13:14;5.93;;;3.30;;
4422;SDS011;2224;49.814;8.650;2023-03-11T08:15:40;6.30;;;2.63;;
4422;SDS011;2224;49.814;8.650;2023-03-11T08:18:05;8.40;;;3.10;;
4422;SDS011;2224;49.814;8.650;2023-03-11T08:20:30;4.70;;;3.20;;
4422;SDS011;2224;49.814;8.650;2023-03-11T08:22:56;6.57;;;2.80;;
4422;SDS011;2224;49.814;8.650;2023-03-11T08:25:21;2.90;;;2.60;;
4422;SDS011;2224;49.814;8.650;2023-03-11T08:27:47;4.27;;;2.80;;
4422;SDS011;2224;49.814;8.650;2023-03-11T08:30:12;6.00;;;2.63;;
4422;SDS011;2224;49.814;8.650;2023-03-11T08:32:38;4.90;;;2.50;;
4422;SDS011;2224;49.814;8.650;2023-03-11T08:35:03;7.00;;;3.03;;
4422;SDS011;2224;49.814;8.650;2023-03-11T08:37:29;6.03;;;2.97;;
4422;SDS011;2224;49.814;8.650;2023-03-11T08:39:55;5.30;;;3.33;;
4422;SDS011;2224;49.814;8.650;2023-03-11T08:42:21;3.60;;;2.40;;
4422;SDS011;2224;49.814;8.650;2023-03-11T08:44:46;7.00;;;2.97;;
4422;SDS011;2224;49.814;8.650;2023-03-11T08:47:11;2.50;;;2.30;;
4422;SDS011;2224;49.814;8.650;2023-03-11T08:49:37;4.30;;;2.43;;
4422;SDS011;2224;49.814;8.650;2023-03-11T08:52:03;3.67;;;1.90;;
4422;SDS011;2224;49.814;8.650;2023-03-11T08:54:29;4.77;;;2.30;;
4422;SDS011;2224;49.814;8.650;2023-03-11T08:56:54;5.33;;;2.50;;
4422;SDS011;2224;49.814;8.650;2023-03-11T08:59:20;4.47;;;2.20;;
4422;SDS011;2224;49.814;8.650;2023-03-11T09:01:45;5.37;;;2.60;;
4422;SDS011;2224;49.814;8.650;2023-03-11T09:04:11;5.17;;;2.40;;
4422;SDS011;2224;49.814;8.650;2023-03-11T09:06:40;2.43;;;1.90;;
4422;SDS011;2224;49.814;8.650;2023-03-11T09:09:06;3.70;;;2.30;;
4422;SDS011;2224;49.814;8.650;2023-03-11T09:11:31;6.60;;;2.53;;
4422;SDS011;2224;49.814;8.650;2023-03-11T09:13:56;3.83;;;2.43;;
4422;SDS011;2224;49.814;8.650;2023-03-11T09:16:22;5.03;;;4.00;;
4422;SDS011;2224;49.814;8.650;2023-03-11T09:18:48;4.20;;;2.20;;
4422;SDS011;2224;49.814;8.650;2023-03-11T09:21:14;4.60;;;2.13;;
4422;SDS011;2224;49.814;8.650;2023-03-11T09:23:39;6.33;;;2.60;;
4422;SDS011;2224;49.814;8.650;2023-03-11T09:26:05;3.97;;;1.77;;
4422;SDS011;2224;49.814;8.650;2023-03-11T09:28:30;4.23;;;2.17;;
4422;SDS011;2224;49.814;8.650;2023-03-11T09:30:56;8.67;;;2.23;;
4422;SDS011;2224;49.814;8.650;2023-03-11T09:33:21;11.13;;;2.73;;
4422;SDS011;2224;49.814;8.650;2023-03-11T09:35:47;3.80;;;2.10;;
4422;SDS011;2224;49.814;8.650;2023-03-11T09:38:12;5.30;;;2.30;;
4422;SDS011;2224;49.814;8.650;2023-03-11T09:40:43;7.70;;;3.93;;
4422;SDS011;2224;49.814;8.650;2023-03-11T09:43:15;3.27;;;2.00;;
4422;SDS011;2224;49.814;8.650;2023-03-11T09:46:13;5.50;;;2.57;;
4422;SDS011;2224;49.814;8.650;2023-03-11T09:48:53;6.27;;;1.77;;
4422;SDS011;2224;49.814;8.650;2023-03-11T09:51:22;4.03;;;1.97;;
4422;SDS011;2224;49.814;8.650;2023-03-11T09:53:53;1.97;;;1.47;;
4422;SDS011;2224;49.814;8.650;2023-03-11T09:56:23;3.53;;;1.90;;
4422;SDS011;2224;49.814;8.650;2023-03-11T09:58:50;1.90;;;1.80;;
4422;SDS011;2224;49.814;8.650;2023-03-11T10:01:18;4.90;;;2.00;;
4422;SDS011;2224;49.814;8.650;2023-03-11T10:03:46;3.50;;;2.40;;
4422;SDS011;2224;49.814;8.650;2023-03-11T10:08:43;2.00;;;1.73;;
4422;SDS011;2224;49.814;8.650;2023-03-11T10:11:22;4.60;;;2.63;;
4422;SDS011;2224;49.814;8.650;2023-03-11T10:14:08;5.53;;;2.63;;
4422;SDS011;2224;49.814;8.650;2023-03-11T10:21:52;2.43;;;2.17;;
4422;SDS011;2224;49.814;8.650;2023-03-11T10:24:32;4.03;;;2.23;;
4422;SDS011;2224;49.814;8.650;2023-03-11T10:27:05;2.73;;;2.50;;
4422;SDS011;2224;49.814;8.650;2023-03-11T10:29:58;2.67;;;1.97;;
4422;SDS011;2224;49.814;8.650;2023-03-11T10:35:23;6.80;;;3.67;;
4422;SDS011;2224;49.814;8.650;2023-03-11T10:37:54;3.37;;;2.27;;
4422;SDS011;2224;49.814;8.650;2023-03-11T10:40:28;4.87;;;2.10;;
4422;SDS011;2224;49.814;8.650;2023-03-11T10:42:55;7.80;;;2.63;;
4422;SDS011;2224;49.814;8.650;2023-03-11T10:45:21;3.50;;;1.83;;
4422;SDS011;2224;49.814;8.650;2023-03-11T10:47:47;6.80;;;3.40;;
4422;SDS011;2224;49.814;8.650;2023-03-11T10:50:16;8.20;;;2.43;;
4422;SDS011;2224;49.814;8.650;2023-03-11T10:52:45;4.47;;;2.30;;
4422;SDS011;2224;49.814;8.650;2023-03-11T10:55:29;6.80;;;2.57;;
4422;SDS011;2224;49.814;8.650;2023-03-11T10:58:02;6.50;;;3.90;;
4422;SDS011;2224;49.814;8.650;2023-03-11T11:00:30;2.97;;;2.13;;
4422;SDS011;2224;49.814;8.650;2023-03-11T11:02:56;4.10;;;2.13;;
4422;SDS011;2224;49.814;8.650;2023-03-11T11:05:27;3.40;;;2.23;;
4422;SDS011;2224;49.814;8.650;2023-03-11T11:08:13;2.83;;;2.10;;
4422;SDS011;2224;49.814;8.650;2023-03-11T11:10:49;2.60;;;2.20;;
4422;SDS011;2224;49.814;8.650;2023-03-11T11:13:26;3.17;;;1.90;;
4422;SDS011;2224;49.814;8.650;2023-03-11T11:16:00;3.80;;;1.90;;
4422;SDS011;2224;49.814;8.650;2023-03-11T11:18:28;3.00;;;2.00;;
4422;SDS011;2224;49.814;8.650;2023-03-11T11:23:33;5.27;;;2.10;;
4422;SDS011;2224;49.814;8.650;2023-03-11T11:26:02;2.40;;;1.90;;
4422;SDS011;2224;49.814;8.650;2023-03-11T11:28:29;2.47;;;1.50;;
4422;SDS011;2224;49.814;8.650;2023-03-11T11:30:57;3.87;;;1.80;;
4422;SDS011;2224;49.814;8.650;2023-03-11T11:35:51;3.13;;;1.83;;
4422;SDS011;2224;49.814;8.650;2023-03-11T11:38:20;10.03;;;2.33;;
4422;SDS011;2224;49.814;8.650;2023-03-11T11:40:48;2.50;;;2.30;;
4422;SDS011;2224;49.814;8.650;2023-03-11T11:43:15;2.60;;;2.40;;
4422;SDS011;2224;49.814;8.650;2023-03-11T11:45:44;2.37;;;1.90;;
4422;SDS011;2224;49.814;8.650;2023-03-11T11:51:22;5.23;;;2.40;;
4422;SDS011;2224;49.814;8.650;2023-03-11T11:56:37;4.10;;;1.77;;
4422;SDS011;2224;49.814;8.650;2023-03-11T11:59:08;2.53;;;2.33;;
4422;SDS011;2224;49.814;8.650;2023-03-11T12:01:49;3.80;;;2.67;;
4422;SDS011;2224;49.814;8.650;2023-03-11T12:04:24;1.83;;;1.73;;
4422;SDS011;2224;49.814;8.650;2023-03-11T12:15:48;3.60;;;2.20;;
4422;SDS011;2224;49.814;8.650;2023-03-11T12:17:54;2.80;;;2.20;;
4422;SDS011;2224;49.814;8.650;2023-03-11T12:25:44;2.87;;;2.40;;
4422;SDS011;2224;49.814;8.650;2023-03-11T12:30:59;3.90;;;1.97;;
4422;SDS011;2224;49.814;8.650;2023-03-11T12:33:39;3.23;;;2.23;;
4422;SDS011;2224;49.814;8.650;2023-03-11T12:36:05;2.40;;;2.20;;
4422;SDS011;2224;49.814;8.650;2023-03-11T12:38:44;5.17;;;2.20;;
4422;SDS011;2224;49.814;8.650;2023-03-11T12:46:05;2.53;;;2.33;;
4422;SDS011;2224;49.814;8.650;2023-03-11T12:48:32;4.03;;;2.97;;
4422;SDS011;2224;49.814;8.650;2023-03-11T12:51:04;3.00;;;1.90;;
4422;SDS011;2224;49.814;8.650;2023-03-11T12:53:48;2.50;;;1.80;;
4422;SDS011;2224;49.814;8.650;2023-03-11T12:56:16;2.30;;;2.10;;
4422;SDS011;2224;49.814;8.650;2023-03-11T12:58:59;6.30;;;1.90;;
4422;SDS011;2224;49.814;8.650;2023-03-11T13:01:31;2.67;;;2.43;;
4422;SDS011;2224;49.814;8.650;2023-03-11T13:04:13;4.13;;;2.80;;
4422;SDS011;2224;49.814;8.650;2023-03-11T13:06:50;3.20;;;2.53;;
4422;SDS011;2224;49.814;8.650;2023-03-11T13:09:25;6.97;;;2.37;;
4422;SDS011;2224;49.814;8.650;2023-03-11T13:11:50;5.97;;;2.47;;
4422;SDS011;2224;49.814;8.650;2023-03-11T13:14:25;4.37;;;2.10;;
4422;SDS011;2224;49.814;8.650;2023-03-11T13:16:55;3.03;;;2.37;;
4422;SDS011;2224;49.814;8.650;2023-03-11T13:21:50;3.17;;;2.47;;
4422;SDS011;2224;49.814;8.650;2023-03-11T13:32:49;5.73;;;2.40;;
4422;SDS011;2224;49.814;8.650;2023-03-11T13:35:39;3.10;;;2.60;;
4422;SDS011;2224;49.814;8.650;2023-03-11T13:40:56;3.33;;;2.90;;
4422;SDS011;2224;49.814;8.650;2023-03-11T13:43:22;2.50;;;2.30;;
4422;SDS011;2224;49.814;8.650;2023-03-11T13:45:57;5.63;;;2.07;;
4422;SDS011;2224;49.814;8.650;2023-03-11T13:48:27;2.20;;;1.87;;
4422;SDS011;2224;49.814;8.650;2023-03-11T13:50:57;2.53;;;2.17;;
4422;SDS011;2224;49.814;8.650;2023-03-11T13:53:27;8.23;;;3.07;;
4422;SDS011;2224;49.814;8.650;2023-03-11T13:55:56;5.50;;;2.23;;
4422;SDS011;2224;49.814;8.650;2023-03-11T13:58:22;3.50;;;2.37;;
4422;SDS011;2224;49.814;8.650;2023-03-11T14:00:49;4.00;;;3.13;;
4422;SDS011;2224;49.814;8.650;2023-03-11T14:03:16;3.17;;;2.30;;
4422;SDS011;2224;49.814;8.650;2023-03-11T14:05:45;2.73;;;2.40;;
4422;SDS011;2224;49.814;8.650;2023-03-11T14:08:32;4.33;;;1.97;;
4422;SDS011;2224;49.814;8.650;2023-03-11T14:10:59;2.50;;;2.30;;
4422;SDS011;2224;49.814;8.650;2023-03-11T14:13:55;5.17;;;2.80;;
4422;SDS011;2224;49.814;8.650;2023-03-11T14:16:27;2.70;;;2.50;;
4422;SDS011;2224;49.814;8.650;2023-03-11T14:21:28;3.47;;;2.27;;
4422;SDS011;2224;49.814;8.650;2023-03-11T14:23:57;3.80;;;2.67;;
4422;SDS011;2224;49.814;8.650;2023-03-11T14:26:28;4.30;;;2.40;;
4422;SDS011;2224;49.814;8.650;2023-03-11T14:28:56;4.33;;;2.83;;
4422;SDS011;2224;49.814;8.650;2023-03-11T14:33:57;4.30;;;2.77;;
4422;SDS011;2224;49.814;8.650;2023-03-11T14:36:29;4.20;;;2.73;;
4422;SDS011;2224;49.814;8.650;2023-03-11T14:38:55;4.17;;;2.83;;
4422;SDS011;2224;49.814;8.650;2023-03-11T14:41:21;3.90;;;2.53;;
4422;SDS011;2224;49.814;8.650;2023-03-11T14:43:47;3.33;;;2.30;;
4422;SDS011;2224;49.814;8.650;2023-03-11T14:46:17;2.60;;;2.40;;
4422;SDS011;2224;49.814;8.650;2023-03-11T14:48:45;5.87;;;2.70;;
4422;SDS011;2224;49.814;8.650;2023-03-11T14:51:18;5.90;;;2.70;;
4422;SDS011;2224;49.814;8.650;2023-03-11T14:53:48;3.27;;;2.33;;
4422;SDS011;2224;49.814;8.650;2023-03-11T14:56:18;2.70;;;2.17;;
4422;SDS011;2224;49.814;8.650;2023-03-11T15:01:43;3.13;;;2.63;;
4422;SDS011;2224;49.814;8.650;2023-03-11T15:04:11;3.17;;;2.50;;
4422;SDS011;2224;49.814;8.650;2023-03-11T15:06:56;5.47;;;2.50;;
4422;SDS011;2224;49.814;8.650;2023-03-11T15:09:22;4.53;;;2.80;;
4422;SDS011;2224;49.814;8.650;2023-03-11T15:14:19;3.00;;;2.10;;
4422;SDS011;2224;49.814;8.650;2023-03-11T15:17:08;2.70;;;2.50;;
4422;SDS011;2224;49.814;8.650;2023-03-11T15:19:44;3.33;;;2.40;;
4422;SDS011;2224;49.814;8.650;2023-03-11T15:22:26;3.60;;;2.27;;
4422;SDS011;2224;49.814;8.650;2023-03-11T15:24:55;5.20;;;2.13;;
4422;SDS011;2224;49.814;8.650;2023-03-11T15:30:01;2.90;;;2.07;;
4422;SDS011;2224;49.814;8.650;2023-03-11T15:35:01;4.37;;;2.10;;
4422;SDS011;2224;49.814;8.650;2023-03-11T15:37:34;4.37;;;2.30;;
4422;SDS011;2224;49.814;8.650;2023-03-11T15:45:53;3.17;;;2.23;;
4422;SDS011;2224;49.814;8.650;2023-03-11T15:48:21;3.43;;;2.27;;
4422;SDS011;2224;49.814;8.650;2023-03-11T15:50:54;4.00;;;1.97;;
4422;SDS011;2224;49.814;8.650;2023-03-11T15:53:21;6.97;;;2.17;;
4422;SDS011;2224;49.814;8.650;2023-03-11T15:55:47;2.40;;;1.97;;
4422;SDS011;2224;49.814;8.650;2023-03-11T15:58:14;3.17;;;2.30;;
4422;SDS011;2224;49.814;8.650;2023-03-11T16:00:43;2.60;;;2.40;;
4422;SDS011;2224;49.814;8.650;2023-03-11T16:03:10;2.40;;;1.90;;
4422;SDS011;2224;49.814;8.650;2023-03-11T16:05:36;4.20;;;2.37;;
4422;SDS011;2224;49.814;8.650;2023-03-11T16:08:01;2.90;;;1.77;;
4422;SDS011;2224;49.814;8.650;2023-03-11T16:10:27;5.17;;;2.27;;
4422;SDS011;2224;49.814;8.650;2023-03-11T16:12:53;2.60;;;1.90;;
4422;SDS011;2224;49.814;8.650;2023-03-11T16:17:51;2.53;;;2.20;;
4422;SDS011;2224;49.814;8.650;2023-03-11T16:20:17;4.43;;;2.40;;
4422;SDS011;2224;49.814;8.650;2023-03-11T16:22:43;3.40;;;2.30;;
4422;SDS011;2224;49.814;8.650;2023-03-11T16:25:51;3.63;;;2.10;;
4422;SDS011;2224;49.814;8.650;2023-03-11T16:27:59;6.23;;;2.23;;
4422;SDS011;2224;49.814;8.650;2023-03-11T16:30:25;3.70;;;2.13;;
4422;SDS011;2224;49.814;8.650;2023-03-11T16:32:51;3.73;;;2.50;;
4422;SDS011;2224;49.814;8.650;2023-03-11T16:35:17;3.47;;;2.43;;
4422;SDS011;2224;49.814;8.650;2023-03-11T16:37:42;3.80;;;2.70;;
4422;SDS011;2224;49.814;8.650;2023-03-11T16:40:15;2.63;;;2.27;;
4422;SDS011;2224;49.814;8.650;2023-03-11T16:42:43;2.63;;;2.43;;